Time;durP1;ratioP1;P1;durP2;ratioP2;P2;SDS_P1;SDS_P2;PMS_P1;PMS_P2;Temp;Humidity;BMP_temperature;BMP_pressure;BME280_temperature;BME280_humidity;BME280_pressure;Samples;Min_cycle;Max_cycle;Signal;HPM_P1;HPM_P2
2022/11/26 00:00:51;;;;;;;10.88;2.70;;;6.20;99.90;;;;;;5158836;27;20058;-72
2022/11/26 00:03:18;;;;;;;8.55;1.98;;;6.70;99.90;;;;;;5140434;27;20501;-71
2022/11/26 00:05:46;;;;;;;9.40;2.78;;;6.10;99.90;;;;;;5158894;27;20043;-71
2022/11/26 00:08:29;;;;;;;8.20;2.70;;;6.30;99.90;;;;;;5140079;27;20039;-72
2022/11/26 00:10:54;;;;;;;7.88;2.50;;;5.80;99.90;;;;;;5139923;27;20054;-72
2022/11/26 00:13:24;;;;;;;8.02;2.28;;;5.70;99.90;;;;;;5158588;27;20064;-72
2022/11/26 00:15:49;;;;;;;8.77;2.67;;;6.30;99.90;;;;;;5139677;27;20047;-72
2022/11/26 00:18:16;;;;;;;7.05;2.45;;;5.90;99.90;;;;;;5123273;27;20043;-72
2022/11/26 00:20:44;;;;;;;8.35;2.53;;;5.80;99.90;;;;;;5158386;27;20439;-72
2022/11/26 00:23:22;;;;;;;11.57;2.75;;;6.10;99.90;;;;;;5158260;27;20130;-71
2022/11/26 00:25:52;;;;;;;7.53;2.65;;;6.00;99.90;;;;;;5158274;27;20046;-72
2022/11/26 00:28:32;;;;;;;5.60;2.20;;;6.60;99.90;;;;;;5158594;27;20042;-72
2022/11/26 00:31:01;;;;;;;7.43;2.15;;;6.50;99.90;;;;;;5140734;27;20082;-72
2022/11/26 00:33:28;;;;;;;10.65;2.80;;;5.20;99.90;;;;;;5139866;27;20385;-72
2022/11/26 00:36:04;;;;;;;7.85;2.60;;;6.00;99.90;;;;;;5158222;27;20133;-71
2022/11/26 00:38:31;;;;;;;10.30;2.95;;;5.90;99.90;;;;;;5139774;27;20054;-72
2022/11/26 00:40:57;;;;;;;12.90;3.75;;;5.90;99.90;;;;;;5122131;27;20034;-72
2022/11/26 00:43:23;;;;;;;9.35;2.90;;;6.10;99.90;;;;;;5158346;27;20051;-72
2022/11/26 00:45:49;;;;;;;7.90;2.78;;;5.80;99.90;;;;;;5138970;27;20065;-72
2022/11/26 00:48:16;;;;;;;11.57;3.40;;;6.00;99.90;;;;;;5157684;27;20049;-72
2022/11/26 00:50:46;;;;;;;8.85;2.88;;;6.10;99.90;;;;;;5139846;27;20050;-71
2022/11/26 00:53:15;;;;;;;14.55;3.58;;;5.90;99.90;;;;;;5158373;27;20050;-71
2022/11/26 00:55:45;;;;;;;12.55;3.38;;;5.80;99.90;;;;;;5139193;27;20054;-72
2022/11/26 00:58:26;;;;;;;6.97;2.72;;;6.00;99.90;;;;;;5122465;27;20043;-71
2022/11/26 01:00:53;;;;;;;10.15;2.53;;;6.00;99.90;;;;;;5139518;27;20042;-72
2022/11/26 01:03:19;;;;;;;7.75;2.58;;;6.30;99.90;;;;;;5139659;27;20096;-72
2022/11/26 01:05:51;;;;;;;11.77;2.95;;;6.60;99.90;;;;;;5138679;27;20375;-72
2022/11/26 01:08:19;;;;;;;12.60;3.42;;;5.70;99.90;;;;;;5139076;27;20103;-72
2022/11/26 01:10:45;;;;;;;12.35;3.15;;;6.10;99.90;;;;;;5156757;27;20125;-72
2022/11/26 01:13:11;;;;;;;7.45;2.60;;;6.20;99.90;;;;;;5157295;27;20183;-71
2022/11/26 01:15:37;;;;;;;8.13;3.10;;;6.20;99.90;;;;;;5157361;27;20046;-72
2022/11/26 01:18:11;;;;;;;9.63;3.53;;;5.70;99.90;;;;;;5157277;27;20073;-72
2022/11/26 01:20:37;;;;;;;8.93;3.20;;;5.80;99.90;;;;;;5138766;27;20049;-72
2022/11/26 01:23:03;;;;;;;8.48;3.53;;;6.40;99.90;;;;;;5138805;27;20486;-72
2022/11/26 01:25:28;;;;;;;9.75;3.40;;;5.70;99.90;;;;;;5138329;27;20050;-72
2022/11/26 01:27:54;;;;;;;8.98;3.42;;;6.10;99.90;;;;;;5138554;27;20118;-71
2022/11/26 01:30:29;;;;;;;14.10;3.80;;;5.70;99.90;;;;;;5087448;27;20490;-71
2022/11/26 01:32:55;;;;;;;11.70;4.38;;;5.70;99.90;;;;;;5138690;27;20057;-71
2022/11/26 01:35:21;;;;;;;9.95;3.83;;;5.60;99.90;;;;;;5138631;27;20054;-72
2022/11/26 01:37:48;;;;;;;12.52;4.20;;;5.50;99.90;;;;;;5138630;27;20073;-71
2022/11/26 01:40:17;;;;;;;10.85;3.53;;;5.80;99.90;;;;;;5121279;27;20095;-72
2022/11/26 01:42:48;;;;;;;10.63;3.65;;;6.40;99.90;;;;;;5138544;27;20411;-71
2022/11/26 01:45:17;;;;;;;8.45;3.67;;;5.80;99.90;;;;;;5138250;27;20078;-71
2022/11/26 01:47:47;;;;;;;12.23;3.58;;;5.90;99.90;;;;;;5121155;27;20137;-71
2022/11/26 01:50:28;;;;;;;12.07;4.15;;;5.80;99.90;;;;;;5156813;27;20462;-72
2022/11/26 01:53:09;;;;;;;12.40;3.78;;;6.10;99.90;;;;;;5138293;27;20125;-72
2022/11/26 01:55:50;;;;;;;12.10;4.20;;;5.90;99.90;;;;;;5137205;27;20506;-72
2022/11/26 01:58:20;;;;;;;15.15;4.95;;;5.70;99.90;;;;;;5156521;27;20047;-72
2022/11/26 02:00:49;;;;;;;10.95;4.70;;;5.70;99.90;;;;;;5138223;27;20043;-72
2022/11/26 02:03:17;;;;;;;12.50;5.93;;;5.60;99.90;;;;;;5156001;27;20516;-72
2022/11/26 02:05:56;;;;;;;13.88;5.93;;;5.90;99.90;;;;;;5156318;27;20491;-72
2022/11/26 02:08:25;;;;;;;13.25;6.03;;;5.60;99.90;;;;;;5122167;27;20074;-72
2022/11/26 02:10:51;;;;;;;14.43;6.90;;;5.60;99.90;;;;;;5137256;27;20403;-72
2022/11/26 02:13:18;;;;;;;14.80;7.00;;;5.60;99.90;;;;;;5120703;27;20099;-72
2022/11/26 02:16:10;;;;;;;12.32;6.63;;;5.70;99.90;;;;;;5120987;27;20046;-71
2022/11/26 02:18:43;;;;;;;13.05;6.10;;;5.40;99.90;;;;;;5109880;27;20094;-71
2022/11/26 02:21:17;;;;;;;12.00;7.10;;;5.60;99.90;;;;;;5137837;27;20191;-72
2022/11/26 02:24:07;;;;;;;11.80;6.35;;;5.80;99.90;;;;;;5155975;27;20057;-72
2022/11/26 02:26:57;;;;;;;15.90;6.40;;;5.60;99.90;;;;;;5120573;27;20050;-71
2022/11/26 02:29:26;;;;;;;13.35;6.25;;;5.60;99.90;;;;;;5120295;27;20115;-72
2022/11/26 02:31:51;;;;;;;11.45;5.13;;;6.10;99.90;;;;;;5120481;27;20050;-72
2022/11/26 02:34:39;;;;;;;12.00;5.85;;;5.60;99.90;;;;;;5120506;27;20110;-72
2022/11/26 02:37:28;;;;;;;14.05;5.85;;;5.60;99.90;;;;;;5120544;27;20038;-72
2022/11/26 02:39:56;;;;;;;11.10;4.63;;;5.80;99.90;;;;;;5155126;27;20367;-72
2022/11/26 02:42:29;;;;;;;12.30;5.45;;;5.80;99.90;;;;;;5137194;27;20043;-72
2022/11/26 02:44:58;;;;;;;12.10;5.15;;;5.50;99.90;;;;;;5137366;27;20130;-72
2022/11/26 02:47:26;;;;;;;13.55;5.60;;;5.80;99.90;;;;;;5137566;27;20045;-72
2022/11/26 02:49:54;;;;;;;13.50;5.32;;;5.80;99.90;;;;;;5120377;27;20046;-72
2022/11/26 02:52:22;;;;;;;13.98;5.25;;;5.80;99.90;;;;;;5155527;27;20038;-72
2022/11/26 02:54:49;;;;;;;15.15;5.30;;;5.70;99.90;;;;;;5155301;27;20047;-72
2022/11/26 02:57:19;;;;;;;15.02;5.47;;;5.30;99.90;;;;;;5156284;27;20046;-71
2022/11/26 02:59:46;;;;;;;12.35;5.13;;;6.70;99.90;;;;;;5137380;27;20390;-72
2022/11/26 03:02:40;;;;;;;9.52;4.88;;;6.60;99.90;;;;;;5137128;27;20039;-72
2022/11/26 03:05:07;;;;;;;10.55;5.28;;;5.70;99.90;;;;;;5155363;27;20039;-72
2022/11/26 03:07:34;;;;;;;11.05;5.00;;;5.40;99.90;;;;;;5136658;27;20410;-72
2022/11/26 03:10:01;;;;;;;10.25;5.45;;;6.10;99.90;;;;;;5136540;27;20051;-72
2022/11/26 03:12:27;;;;;;;9.90;5.35;;;6.30;99.90;;;;;;5155214;27;20074;-72
2022/11/26 03:14:53;;;;;;;14.70;5.72;;;6.50;99.90;;;;;;5136980;27;20054;-72
2022/11/26 03:17:19;;;;;;;11.38;5.30;;;5.60;99.90;;;;;;5119953;27;20043;-72
2022/11/26 03:19:45;;;;;;;15.63;6.35;;;6.30;99.90;;;;;;5155199;27;20054;-71
2022/11/26 03:22:13;;;;;;;13.32;6.65;;;6.20;99.90;;;;;;5155194;27;20049;-72
2022/11/26 03:24:39;;;;;;;12.20;5.60;;;5.50;99.90;;;;;;5154882;27;20410;-72
2022/11/26 03:27:05;;;;;;;12.55;6.65;;;6.10;99.90;;;;;;5155254;27;20042;-72
2022/11/26 03:29:31;;;;;;;14.27;5.95;;;5.70;99.90;;;;;;5102809;27;20078;-71
2022/11/26 03:31:56;;;;;;;12.05;6.03;;;5.80;99.90;;;;;;5136432;27;20126;-72
2022/11/26 03:34:22;;;;;;;14.13;6.60;;;6.20;99.90;;;;;;5102388;27;20039;-72
2022/11/26 03:36:48;;;;;;;10.73;6.00;;;5.90;99.90;;;;;;5155146;27;20043;-72
2022/11/26 03:39:13;;;;;;;15.88;6.30;;;5.90;99.90;;;;;;5119670;27;20054;-72
2022/11/26 03:41:42;;;;;;;11.40;5.63;;;6.20;99.90;;;;;;5154446;27;20045;-72
2022/11/26 03:44:11;;;;;;;12.68;6.57;;;6.10;99.90;;;;;;5136523;27;20161;-72
2022/11/26 03:46:37;;;;;;;14.75;6.35;;;5.60;99.90;;;;;;5154798;27;20046;-72
2022/11/26 03:49:03;;;;;;;8.82;5.63;;;6.30;99.90;;;;;;5155617;27;20042;-72
2022/11/26 03:51:29;;;;;;;10.82;6.45;;;6.20;99.90;;;;;;5102104;27;20039;-71
2022/11/26 03:53:55;;;;;;;12.52;6.45;;;5.40;99.90;;;;;;5102816;27;20133;-72
2022/11/26 03:56:20;;;;;;;13.48;7.63;;;5.80;99.90;;;;;;5101913;27;20099;-71
2022/11/26 03:58:46;;;;;;;10.82;5.97;;;6.30;99.90;;;;;;5119191;27;20050;-72
2022/11/26 04:01:12;;;;;;;9.77;6.32;;;6.00;99.90;;;;;;5136760;27;20046;-72
2022/11/26 04:03:38;;;;;;;13.63;6.88;;;5.60;99.90;;;;;;5154725;27;20129;-72
2022/11/26 04:06:05;;;;;;;12.80;6.88;;;5.50;99.90;;;;;;5154772;27;20045;-72
2022/11/26 04:08:31;;;;;;;14.73;7.00;;;5.50;99.90;;;;;;5136243;27;20045;-72
2022/11/26 04:10:56;;;;;;;9.13;6.25;;;5.30;99.90;;;;;;5136137;27;20043;-72
2022/11/26 04:13:22;;;;;;;12.25;6.55;;;5.80;99.90;;;;;;5136529;27;20378;-72
2022/11/26 04:15:48;;;;;;;15.93;6.75;;;5.70;99.90;;;;;;5154651;27;20039;-72
2022/11/26 04:18:14;;;;;;;10.20;6.70;;;5.60;99.90;;;;;;5136417;27;20047;-72
2022/11/26 04:20:40;;;;;;;10.50;6.28;;;5.60;99.90;;;;;;5157655;27;20042;-72
2022/11/26 04:23:06;;;;;;;12.30;6.45;;;5.50;99.90;;;;;;5123390;27;20485;-72
2022/11/26 04:25:32;;;;;;;12.90;6.90;;;5.20;99.90;;;;;;5122581;27;20053;-72
2022/11/26 04:27:58;;;;;;;14.55;7.35;;;4.80;99.90;;;;;;5139806;27;20436;-72
2022/11/26 04:30:24;;;;;;;11.40;6.72;;;5.40;99.90;;;;;;5140177;27;20423;-72
2022/11/26 04:32:50;;;;;;;13.65;6.78;;;5.40;99.90;;;;;;5140320;27;20121;-72
2022/11/26 04:35:16;;;;;;;14.20;6.40;;;5.50;99.90;;;;;;5158125;27;20050;-72
2022/11/26 04:37:42;;;;;;;14.60;6.78;;;5.10;99.90;;;;;;5140000;27;20077;-71
2022/11/26 04:40:08;;;;;;;16.40;7.55;;;5.90;99.90;;;;;;5157451;27;20541;-72
2022/11/26 04:42:34;;;;;;;15.05;6.35;;;4.50;99.90;;;;;;5105426;27;20046;-72
2022/11/26 04:45:00;;;;;;;15.00;7.03;;;5.60;99.90;;;;;;5105538;27;20394;-72
2022/11/26 04:47:25;;;;;;;9.95;6.68;;;5.30;99.90;;;;;;5121779;27;20043;-72
2022/11/26 04:49:51;;;;;;;10.88;6.80;;;5.40;99.90;;;;;;5158092;27;20045;-72
2022/11/26 04:52:17;;;;;;;13.02;7.20;;;5.70;99.90;;;;;;5139329;27;20125;-72
2022/11/26 04:54:42;;;;;;;12.75;7.03;;;5.30;99.90;;;;;;5139081;27;20049;-72
2022/11/26 04:57:08;;;;;;;13.00;6.03;;;5.50;99.90;;;;;;5140018;27;20113;-72
2022/11/26 04:59:34;;;;;;;13.52;6.80;;;5.20;99.90;;;;;;5157548;27;20103;-72
2022/11/26 05:02:00;;;;;;;10.68;6.55;;;5.20;99.90;;;;;;5157592;27;20117;-72
2022/11/26 05:04:27;;;;;;;15.60;6.93;;;5.10;99.90;;;;;;5157530;27;20478;-72
2022/11/26 05:06:53;;;;;;;17.35;7.15;;;5.20;99.90;;;;;;5139160;27;20125;-72
2022/11/26 05:09:19;;;;;;;13.15;6.80;;;5.70;99.90;;;;;;5157862;27;20428;-72
2022/11/26 05:11:44;;;;;;;15.13;6.90;;;5.80;99.90;;;;;;5121279;27;20035;-72
2022/11/26 05:14:10;;;;;;;10.10;6.03;;;5.90;99.90;;;;;;5157410;27;20053;-72
2022/11/26 05:16:36;;;;;;;12.90;7.32;;;5.30;99.90;;;;;;5122094;27;20405;-72
2022/11/26 05:19:02;;;;;;;14.55;6.55;;;5.40;99.90;;;;;;5139034;27;20050;-72
2022/11/26 05:21:27;;;;;;;11.55;7.13;;;5.40;99.90;;;;;;5138940;27;20042;-72
2022/11/26 05:23:53;;;;;;;14.57;7.32;;;5.40;99.90;;;;;;5157065;27;20085;-72
2022/11/26 05:26:19;;;;;;;13.40;7.13;;;5.80;99.90;;;;;;5157287;27;20125;-72
2022/11/26 05:28:44;;;;;;;10.13;6.50;;;5.20;99.90;;;;;;5121459;27;20046;-72
2022/11/26 05:31:10;;;;;;;13.20;7.13;;;5.00;99.90;;;;;;5156419;27;20389;-71
2022/11/26 05:33:36;;;;;;;11.77;6.78;;;5.00;99.90;;;;;;5157156;27;20049;-72
2022/11/26 05:36:03;;;;;;;14.30;7.45;;;5.30;99.90;;;;;;5156570;27;20045;-71
2022/11/26 05:38:28;;;;;;;14.63;6.50;;;4.90;99.90;;;;;;5156811;27;20042;-72
2022/11/26 05:40:54;;;;;;;13.50;7.53;;;5.10;99.90;;;;;;5104022;27;20046;-72
2022/11/26 05:43:20;;;;;;;15.50;7.00;;;5.20;99.90;;;;;;5138335;27;20050;-72
2022/11/26 05:45:46;;;;;;;11.60;6.30;;;5.20;99.90;;;;;;5138466;27;20043;-72
2022/11/26 05:48:11;;;;;;;13.75;6.60;;;5.00;99.90;;;;;;5156710;27;20462;-72
2022/11/26 05:50:37;;;;;;;12.18;7.13;;;5.40;99.90;;;;;;5138400;27;20074;-72
2022/11/26 05:53:03;;;;;;;13.13;7.55;;;5.10;99.90;;;;;;5156582;27;20087;-72
2022/11/26 05:55:29;;;;;;;15.10;7.40;;;5.80;99.90;;;;;;5156622;27;20093;-72
2022/11/26 05:57:55;;;;;;;13.88;8.18;;;5.00;99.90;;;;;;5104175;27;20134;-72
2022/11/26 06:00:21;;;;;;;14.93;8.05;;;5.50;99.90;;;;;;5156114;27;20082;-72
2022/11/26 06:02:47;;;;;;;12.35;7.28;;;5.10;99.90;;;;;;5120563;27;20046;-72
2022/11/26 06:05:13;;;;;;;15.43;7.90;;;5.00;99.90;;;;;;5120792;27;20478;-72
2022/11/26 06:07:39;;;;;;;11.35;7.47;;;5.30;99.90;;;;;;5120338;27;20043;-72
2022/11/26 06:10:05;;;;;;;15.45;8.13;;;4.90;99.90;;;;;;5137316;27;20053;-72
2022/11/26 06:12:31;;;;;;;11.73;6.75;;;4.90;99.90;;;;;;5156158;27;20386;-72
2022/11/26 06:14:57;;;;;;;12.02;7.88;;;5.70;99.90;;;;;;5120911;27;20038;-72
2022/11/26 06:17:23;;;;;;;13.50;7.80;;;5.30;99.90;;;;;;5121558;27;20426;-72
2022/11/26 06:19:49;;;;;;;12.45;7.68;;;5.90;99.90;;;;;;5137538;27;20085;-72
2022/11/26 06:22:14;;;;;;;13.15;7.10;;;5.10;99.90;;;;;;5120696;27;20077;-72
2022/11/26 06:24:40;;;;;;;16.80;8.23;;;5.60;99.90;;;;;;5137356;27;20039;-72
2022/11/26 06:27:06;;;;;;;16.63;8.15;;;5.60;99.90;;;;;;5156025;27;20046;-71
2022/11/26 06:29:31;;;;;;;13.32;7.32;;;5.20;99.90;;;;;;5120017;27;20117;-72
2022/11/26 06:31:57;;;;;;;12.75;7.78;;;5.00;99.90;;;;;;5156117;27;20034;-72
2022/11/26 06:34:23;;;;;;;14.85;8.95;;;5.40;99.90;;;;;;5155720;27;20529;-72
2022/11/26 06:36:49;;;;;;;14.73;8.20;;;5.00;99.90;;;;;;5138024;27;20073;-72
2022/11/26 06:39:14;;;;;;;16.92;7.80;;;4.90;99.90;;;;;;5155684;27;20045;-71
2022/11/26 06:41:40;;;;;;;21.27;8.63;;;5.10;99.90;;;;;;5136040;27;20077;-72
2022/11/26 06:44:06;;;;;;;25.95;8.80;;;5.20;99.90;;;;;;5136794;27;20038;-72
2022/11/26 06:46:34;;;;;;;20.95;9.10;;;6.00;99.90;;;;;;5120001;27;20378;-72
2022/11/26 06:49:04;;;;;;;55.85;10.35;;;5.50;99.90;;;;;;5155543;27;20042;-72
2022/11/26 06:51:30;;;;;;;60.53;11.32;;;5.30;99.90;;;;;;5155582;27;20042;-71
2022/11/26 06:53:56;;;;;;;61.13;10.93;;;5.50;99.90;;;;;;5137036;27;20043;-72
2022/11/26 06:56:21;;;;;;;41.50;9.98;;;5.60;99.90;;;;;;5155641;27;20113;-72
2022/11/26 06:58:48;;;;;;;52.25;10.95;;;5.20;99.90;;;;;;5136905;27;20076;-72
2022/11/26 07:01:16;;;;;;;74.78;11.05;;;5.30;99.90;;;;;;5137078;27;20087;-71
2022/11/26 07:03:42;;;;;;;57.80;10.23;;;5.70;99.90;;;;;;5137073;27;20058;-71
2022/11/26 07:06:22;;;;;;;59.45;11.20;;;4.80;99.90;;;;;;5137035;27;20034;-71
2022/11/26 07:08:49;;;;;;;76.03;11.60;;;4.90;99.90;;;;;;5136790;27;20046;-71
2022/11/26 07:11:15;;;;;;;63.85;11.32;;;5.00;99.90;;;;;;5154627;27;20155;-72
2022/11/26 07:13:41;;;;;;;90.90;11.98;;;5.70;99.90;;;;;;5155951;27;20118;-71
2022/11/26 07:16:07;;;;;;;53.28;10.20;;;5.10;99.90;;;;;;5102607;27;20046;-71
2022/11/26 07:18:33;;;;;;;46.60;10.40;;;5.40;99.90;;;;;;5136956;27;20502;-72
2022/11/26 07:21:11;;;;;;;42.40;9.50;;;5.00;99.90;;;;;;5155174;27;20064;-71
2022/11/26 07:23:37;;;;;;;28.67;8.90;;;5.10;99.90;;;;;;5137011;27;20043;-71
2022/11/26 07:26:05;;;;;;;22.55;8.13;;;5.30;99.90;;;;;;5136817;27;20157;-72
2022/11/26 07:28:32;;;;;;;24.02;8.25;;;4.70;99.90;;;;;;5136240;27;20078;-71
2022/11/26 07:31:03;;;;;;;53.58;10.57;;;5.50;99.90;;;;;;5136548;27;20047;-72
2022/11/26 07:33:29;;;;;;;37.05;9.80;;;5.50;99.90;;;;;;5136868;27;20055;-71
2022/11/26 07:36:04;;;;;;;27.25;8.77;;;5.70;99.90;;;;;;5136848;27;20087;-71
2022/11/26 07:38:30;;;;;;;32.08;9.65;;;5.70;99.90;;;;;;5155029;27;20034;-71
2022/11/26 07:41:03;;;;;;;30.90;8.95;;;5.20;99.90;;;;;;5136222;27;20130;-71
2022/11/26 07:43:29;;;;;;;30.98;9.70;;;5.40;99.90;;;;;;5136719;27;20099;-71
2022/11/26 07:45:54;;;;;;;27.75;9.18;;;5.10;99.90;;;;;;5119567;27;20055;-71
2022/11/26 07:48:20;;;;;;;35.00;9.40;;;5.50;99.90;;;;;;5154490;27;20043;-71
2022/11/26 07:50:46;;;;;;;38.17;9.65;;;5.00;99.90;;;;;;5136496;27;20049;-72
2022/11/26 07:53:12;;;;;;;19.77;8.50;;;5.60;99.90;;;;;;5119479;27;20559;-71
2022/11/26 07:55:39;;;;;;;44.80;9.50;;;5.20;99.90;;;;;;5138936;27;20050;-72
2022/11/26 07:58:04;;;;;;;26.65;8.70;;;5.70;99.90;;;;;;5139546;27;20051;-72
2022/11/26 08:00:30;;;;;;;41.47;10.45;;;4.90;99.90;;;;;;5158578;27;20106;-72
2022/11/26 08:02:56;;;;;;;29.10;8.90;;;5.50;99.90;;;;;;5158601;27;20054;-71
2022/11/26 08:05:21;;;;;;;45.38;10.23;;;5.40;99.90;;;;;;5123535;27;20094;-72
2022/11/26 08:07:47;;;;;;;31.83;8.95;;;5.20;99.90;;;;;;5158643;27;20489;-71
2022/11/26 08:10:12;;;;;;;29.10;8.85;;;5.70;99.90;;;;;;5140237;27;20371;-72
2022/11/26 08:12:38;;;;;;;37.78;9.65;;;5.50;99.90;;;;;;5158517;27;20145;-71
2022/11/26 08:15:04;;;;;;;32.70;10.23;;;5.40;99.90;;;;;;5140228;27;20046;-71
2022/11/26 08:17:30;;;;;;;30.17;9.38;;;5.30;99.90;;;;;;5140259;27;20035;-71
2022/11/26 08:19:56;;;;;;;37.58;10.10;;;6.10;99.90;;;;;;5140158;27;20048;-72
2022/11/26 08:22:22;;;;;;;40.78;9.75;;;5.40;99.90;;;;;;5139917;27;20550;-71
2022/11/26 08:24:49;;;;;;;28.98;10.52;;;5.50;99.90;;;;;;5140117;27;20047;-71
2022/11/26 08:27:14;;;;;;;31.85;10.25;;;5.70;99.90;;;;;;5139897;27;20082;-71
2022/11/26 08:29:40;;;;;;;22.90;9.02;;;6.40;99.90;;;;;;5158192;27;20078;-72
2022/11/26 08:32:06;;;;;;;34.97;10.02;;;6.20;99.90;;;;;;5158331;27;20401;-72
2022/11/26 08:34:32;;;;;;;26.25;9.65;;;5.20;99.90;;;;;;5158492;27;20115;-72
2022/11/26 08:36:58;;;;;;;24.58;8.95;;;5.50;99.90;;;;;;5158242;27;20046;-69
2022/11/26 08:39:23;;;;;;;25.80;10.00;;;5.80;99.90;;;;;;5158321;27;20386;-69
2022/11/26 08:41:49;;;;;;;17.40;9.02;;;5.40;99.90;;;;;;5157403;27;20510;-71
2022/11/26 08:44:15;;;;;;;18.58;9.38;;;6.10;99.90;;;;;;5158068;27;20047;-70
2022/11/26 08:46:41;;;;;;;18.25;9.95;;;5.50;99.90;;;;;;5158272;27;20497;-70
2022/11/26 08:49:10;;;;;;;15.65;9.05;;;6.00;99.90;;;;;;5158005;27;20050;-70
2022/11/26 08:51:36;;;;;;;24.08;11.48;;;5.90;99.90;;;;;;5158013;27;20047;-70
2022/11/26 08:54:03;;;;;;;21.63;11.05;;;5.40;99.90;;;;;;5157729;27;20421;-70
2022/11/26 08:56:29;;;;;;;22.20;11.18;;;5.50;99.90;;;;;;5136772;27;20059;-70
2022/11/26 08:58:55;;;;;;;23.25;11.45;;;5.80;99.90;;;;;;5118654;27;20053;-71
2022/11/26 09:01:25;;;;;;;24.83;11.18;;;6.10;99.90;;;;;;5118972;27;20095;-70
2022/11/26 09:03:52;;;;;;;31.15;12.30;;;6.60;99.90;;;;;;5137023;27;20078;-70
2022/11/26 09:06:19;;;;;;;22.55;11.40;;;6.00;99.90;;;;;;5136528;27;20443;-73
2022/11/26 09:11:30;;;;;;;16.85;10.20;;;6.30;99.90;;;;;;5118451;27;20137;-72
2022/11/26 09:13:57;;;;;;;19.65;10.45;;;6.00;99.90;;;;;;5137071;27;20125;-72
2022/11/26 09:16:23;;;;;;;25.02;11.00;;;6.80;99.90;;;;;;5137054;27;20051;-72
2022/11/26 09:18:50;;;;;;;26.15;11.10;;;6.70;99.90;;;;;;5136728;27;20035;-72
2022/11/26 09:21:15;;;;;;;20.77;10.07;;;6.60;99.90;;;;;;5136597;27;20047;-72
2022/11/26 09:23:41;;;;;;;25.08;12.18;;;7.00;99.90;;;;;;5136577;27;20043;-70
2022/11/26 09:26:07;;;;;;;29.27;12.02;;;6.60;99.90;;;;;;5118394;27;20126;-71
2022/11/26 09:28:32;;;;;;;23.52;11.40;;;6.20;99.90;;;;;;5118098;27;20501;-71
2022/11/26 09:30:59;;;;;;;24.77;12.10;;;6.20;99.90;;;;;;5118538;27;20043;-71
2022/11/26 09:33:25;;;;;;;24.08;12.43;;;6.80;99.90;;;;;;5118195;27;20035;-71
2022/11/26 09:35:51;;;;;;;28.63;13.38;;;6.20;99.90;;;;;;5136068;27;20459;-71
2022/11/26 09:38:16;;;;;;;20.55;11.90;;;6.70;99.90;;;;;;5118205;27;20126;-71
2022/11/26 09:40:53;;;;;;;22.20;11.73;;;6.20;99.90;;;;;;5117731;27;20442;-71
2022/11/26 09:43:26;;;;;;;26.13;12.32;;;6.30;99.90;;;;;;5137101;27;20051;-71
2022/11/26 09:45:58;;;;;;;23.08;13.05;;;6.40;99.90;;;;;;5136203;27;20195;-71
2022/11/26 09:48:25;;;;;;;22.73;12.00;;;6.50;99.90;;;;;;5117925;27;20402;-71
2022/11/26 09:51:16;;;;;;;20.48;11.30;;;6.70;99.90;;;;;;5136082;27;20087;-71
2022/11/26 09:53:47;;;;;;;21.67;11.48;;;6.40;99.90;;;;;;5136170;27;20070;-71
2022/11/26 09:56:36;;;;;;;18.17;11.18;;;6.80;99.90;;;;;;5114270;28;20059;-71
2022/11/26 09:59:11;;;;;;;17.45;10.77;;;6.80;99.90;;;;;;5114534;28;20064;-71
2022/11/26 10:01:37;;;;;;;22.48;11.85;;;6.80;99.90;;;;;;5115711;28;20055;-71
2022/11/26 10:04:07;;;;;;;19.08;11.70;;;6.60;99.90;;;;;;5115229;28;20048;-71
2022/11/26 10:07:06;;;;;;;21.23;11.18;;;6.80;99.90;;;;;;5113404;27;20062;-71
2022/11/26 10:09:45;;;;;;;20.38;11.90;;;6.90;99.90;;;;;;5126670;27;20054;-72
2022/11/26 10:12:26;;;;;;;20.90;11.50;;;7.40;99.90;;;;;;5126755;27;20083;-71
2022/11/26 10:15:17;;;;;;;20.27;11.20;;;6.80;99.90;;;;;;5114877;28;20051;-71
2022/11/26 10:17:43;;;;;;;19.05;11.65;;;6.60;99.90;;;;;;5095900;28;20126;-71
2022/11/26 10:20:35;;;;;;;26.60;12.32;;;7.10;99.90;;;;;;5101032;27;20081;-72
2022/11/26 10:23:12;;;;;;;20.92;11.88;;;6.50;99.90;;;;;;5106463;27;20102;-71
2022/11/26 10:25:45;;;;;;;24.42;11.75;;;6.80;99.90;;;;;;5113462;28;20526;-72
2022/11/26 10:28:31;;;;;;;23.55;12.25;;;6.70;99.90;;;;;;5113918;28;20395;-72
2022/11/26 10:30:59;;;;;;;20.10;11.40;;;6.70;99.90;;;;;;5112833;28;20087;-72
2022/11/26 10:33:33;;;;;;;21.35;12.00;;;7.00;99.90;;;;;;5124443;27;20075;-72
2022/11/26 10:35:58;;;;;;;25.05;13.68;;;7.30;99.90;;;;;;5125618;27;20078;-72
2022/11/26 10:38:24;;;;;;;23.15;13.15;;;7.00;99.90;;;;;;5123826;27;20415;-73
2022/11/26 10:40:50;;;;;;;25.48;13.57;;;7.00;99.90;;;;;;5123938;27;20042;-72
2022/11/26 10:43:22;;;;;;;25.23;13.30;;;7.10;99.90;;;;;;5122238;27;20047;-72
2022/11/26 10:45:51;;;;;;;27.45;13.40;;;6.80;99.90;;;;;;5125059;27;20494;-72
2022/11/26 10:48:28;;;;;;;27.52;14.55;;;7.10;99.90;;;;;;5123174;27;20129;-72
2022/11/26 10:51:24;;;;;;;26.95;13.40;;;7.10;99.90;;;;;;5121472;27;20043;-73
2022/11/26 10:53:59;;;;;;;29.50;15.40;;;6.90;99.90;;;;;;5125066;27;20387;-73
2022/11/26 10:56:42;;;;;;;27.40;13.57;;;6.90;99.90;;;;;;5140150;27;20482;-73
2022/11/26 10:59:19;;;;;;;27.85;14.82;;;7.10;99.90;;;;;;5145209;27;20051;-73
2022/11/26 11:01:46;;;;;;;26.25;14.00;;;7.30;99.90;;;;;;5145487;27;20039;-72
2022/11/26 11:04:35;;;;;;;26.25;14.73;;;7.10;99.90;;;;;;5145621;27;20051;-72
2022/11/26 11:07:01;;;;;;;27.88;15.05;;;7.20;99.90;;;;;;5145685;27;20061;-72
2022/11/26 11:09:28;;;;;;;28.58;15.77;;;7.10;99.90;;;;;;5144346;27;20042;-72
2022/11/26 11:12:12;;;;;;;27.92;15.82;;;7.60;99.90;;;;;;5144421;27;20035;-72
2022/11/26 11:14:39;;;;;;;31.15;16.05;;;7.90;99.90;;;;;;5143533;27;20074;-73
2022/11/26 11:17:05;;;;;;;33.33;16.83;;;7.20;99.90;;;;;;5146048;27;20437;-72
2022/11/26 11:19:32;;;;;;;26.90;15.18;;;7.20;99.90;;;;;;5143366;27;20069;-73
2022/11/26 11:21:58;;;;;;;32.13;16.02;;;7.90;99.90;;;;;;5127281;27;20038;-72
2022/11/26 11:24:28;;;;;;;30.63;16.73;;;7.20;99.90;;;;;;5098671;27;20039;-72
2022/11/26 11:27:01;;;;;;;33.33;16.88;;;7.60;99.90;;;;;;5145865;27;20078;-73
2022/11/26 11:29:35;;;;;;;33.97;17.77;;;7.40;99.90;;;;;;5147922;27;20054;-72
2022/11/26 11:32:03;;;;;;;38.95;17.17;;;7.70;99.90;;;;;;5128499;27;20043;-70
2022/11/26 11:34:33;;;;;;;29.50;16.83;;;7.50;99.90;;;;;;5130580;27;20035;-74
2022/11/26 11:37:02;;;;;;;34.38;17.90;;;7.80;99.90;;;;;;5149822;27;20396;-74
2022/11/26 11:39:34;;;;;;;41.45;18.27;;;7.80;99.90;;;;;;5113669;27;20079;-74
2022/11/26 11:42:02;;;;;;;37.33;17.77;;;7.70;99.90;;;;;;5130423;27;20083;-74
2022/11/26 11:44:38;;;;;;;32.50;17.75;;;8.30;99.90;;;;;;5130264;27;20039;-74
2022/11/26 11:47:29;;;;;;;38.28;19.65;;;8.40;99.90;;;;;;5149076;27;20069;-74
2022/11/26 11:50:11;;;;;;;37.70;18.58;;;7.40;99.90;;;;;;5149355;27;20397;-74
2022/11/26 11:53:00;;;;;;;38.75;19.65;;;7.70;99.90;;;;;;5130542;27;20050;-75
2022/11/26 11:55:25;;;;;;;35.67;18.23;;;7.80;99.90;;;;;;5142643;27;20397;-74
2022/11/26 11:58:00;;;;;;;35.67;18.90;;;7.80;99.90;;;;;;5130086;27;20123;-75
2022/11/26 12:00:55;;;;;;;38.78;19.35;;;7.70;99.90;;;;;;5126875;27;20498;-75
2022/11/26 12:03:49;;;;;;;44.47;20.13;;;7.70;99.90;;;;;;5147059;27;20095;-75
2022/11/26 12:06:18;;;;;;;34.45;18.90;;;7.90;99.90;;;;;;5129906;27;20035;-75
2022/11/26 12:09:00;;;;;;;36.65;18.75;;;7.90;99.90;;;;;;5149047;27;20049;-74
2022/11/26 12:11:53;;;;;;;36.55;19.02;;;8.10;99.90;;;;;;5146605;27;20126;-74
2022/11/26 12:14:22;;;;;;;38.38;19.00;;;7.80;99.90;;;;;;5127876;27;20387;-74
2022/11/26 12:16:54;;;;;;;37.63;18.98;;;7.90;99.90;;;;;;5148635;27;20121;-75
2022/11/26 12:19:38;;;;;;;40.67;19.00;;;8.20;99.90;;;;;;5128187;27;20050;-75
2022/11/26 12:22:13;;;;;;;37.15;19.77;;;8.10;99.90;;;;;;5129455;27;20054;-75
2022/11/26 12:24:47;;;;;;;40.05;19.13;;;8.30;99.90;;;;;;5146055;27;20043;-74
2022/11/26 12:27:15;;;;;;;42.10;19.88;;;8.10;99.90;;;;;;5148446;27;20058;-75
2022/11/26 12:29:46;;;;;;;40.55;18.30;;;8.10;99.90;;;;;;5110811;27;20043;-75
2022/11/26 12:32:14;;;;;;;42.60;20.23;;;8.20;99.90;;;;;;5148462;27;20038;-74
2022/11/26 12:34:48;;;;;;;36.33;18.45;;;8.10;99.90;;;;;;5146004;27;20050;-75
2022/11/26 12:37:51;;;;;;;37.47;18.60;;;8.50;99.90;;;;;;5110270;27;20043;-74
2022/11/26 12:40:22;;;;;;;35.38;17.85;;;8.20;99.90;;;;;;5100918;27;20043;-76
2022/11/26 12:42:59;;;;;;;38.47;19.45;;;8.10;99.90;;;;;;5127899;27;20478;-74
2022/11/26 12:46:02;;;;;;;42.97;19.17;;;8.90;99.90;;;;;;5129441;27;20402;-74
2022/11/26 12:48:55;;;;;;;39.30;17.98;;;8.20;99.90;;;;;;5128429;27;20088;-74
2022/11/26 12:51:42;;;;;;;32.65;17.33;;;8.40;99.90;;;;;;5145713;27;20066;-74
2022/11/26 12:54:32;;;;;;;39.75;17.60;;;8.00;99.90;;;;;;5146945;27;20047;-73
2022/11/26 12:57:07;;;;;;;39.20;18.25;;;8.20;99.90;;;;;;5122311;27;20055;-74
2022/11/26 13:00:11;;;;;;;37.53;17.52;;;8.40;99.90;;;;;;5126689;27;20070;-74
2022/11/26 13:02:39;;;;;;;;;;;8.30;99.90;;;;;;5123703;27;20157;-73